JBU543 KEWR-KPBI
Flight info
| Callsign | JBU543 |
|---|---|
| Flight time | 2h 22m |
| Altitude | 38000 |
| Route | ELVAE NECCK WHITE Q409 CRPLR EARZZ Q131 WAALT Y289 DULEE CLMNT2 |
| Aircraft | A320/M-SDE3FGHIRWY/LB1 |
Departure
| Time | 2026-04-25 00:25 |
|---|---|
| Airport | Newark Liberty International Airport (KEWR) |
Arrival
| Time | 2026-04-25 02:47 |
|---|---|
| Airport | Palm Beach International Airport (KPBI) |
| Time | Latitude | Longitude | Altitude | Speed | Heading |
|---|---|---|---|---|---|
| 2026-04-24 23:42 | 40.68624 | -74.18682 | 22 ft | 0 kts | 272° |
| 2026-04-25 00:14 | 40.68623 | -74.18675 | 22 ft | 4 kts | 272° |
| 2026-04-25 00:14 | 40.68623 | -74.18639 | 22 ft | 4 kts | 272° |
| 2026-04-25 00:14 | 40.68622 | -74.18606 | 22 ft | 4 kts | 252° |
| 2026-04-25 00:15 | 40.68635 | -74.18588 | 25 ft | 3 kts | 180° |
| 2026-04-25 00:15 | 40.68655 | -74.18589 | 23 ft | 2 kts | 178° |
| 2026-04-25 00:15 | 40.68657 | -74.18589 | 23 ft | 0 kts | 178° |
| 2026-04-25 00:19 | 40.68652 | -74.18588 | 24 ft | 2 kts | 178° |
| 2026-04-25 00:19 | 40.68611 | -74.18586 | 24 ft | 8 kts | 178° |
| 2026-04-25 00:19 | 40.68541 | -74.18556 | 22 ft | 14 kts | 138° |
| 2026-04-25 00:19 | 40.68510 | -74.18415 | 22 ft | 18 kts | 95° |
| 2026-04-25 00:20 | 40.68498 | -74.18242 | 22 ft | 20 kts | 95° |
| 2026-04-25 00:20 | 40.68467 | -74.18147 | 22 ft | 12 kts | 136° |
| 2026-04-25 00:20 | 40.68422 | -74.18049 | 22 ft | 9 kts | 112° |
| 2026-04-25 00:20 | 40.68399 | -74.17984 | 22 ft | 9 kts | 115° |
| 2026-04-25 00:21 | 40.68364 | -74.17893 | 22 ft | 13 kts | 116° |
| 2026-04-25 00:21 | 40.68335 | -74.17808 | 22 ft | 2 kts | 114° |
| 2026-04-25 00:21 | 40.68323 | -74.17776 | 24 ft | 6 kts | 118° |
| 2026-04-25 00:21 | 40.68273 | -74.17759 | 22 ft | 14 kts | 202° |
| 2026-04-25 00:22 | 40.68173 | -74.17821 | 22 ft | 18 kts | 205° |
| 2026-04-25 00:22 | 40.68053 | -74.17897 | 22 ft | 20 kts | 207° |
| 2026-04-25 00:22 | 40.67919 | -74.17984 | 22 ft | 22 kts | 206° |
| 2026-04-25 00:22 | 40.67786 | -74.18068 | 22 ft | 21 kts | 206° |
| 2026-04-25 00:23 | 40.67652 | -74.18155 | 22 ft | 18 kts | 206° |
| 2026-04-25 00:23 | 40.67640 | -74.18155 | 25 ft | 1 kts | 149° |
| 2026-04-25 00:23 | 40.67633 | -74.18109 | 23 ft | 8 kts | 106° |
| 2026-04-25 00:23 | 40.67606 | -74.18055 | 22 ft | 9 kts | 131° |
| 2026-04-25 00:24 | 40.67559 | -74.17977 | 24 ft | 13 kts | 120° |
| 2026-04-25 00:24 | 40.67596 | -74.17910 | 23 ft | 12 kts | 21° |
| 2026-04-25 00:24 | 40.67654 | -74.17871 | 22 ft | 23 kts | 26° |
| 2026-04-25 00:24 | 40.68038 | -74.17628 | 21 ft | 94 kts | 26° |
| 2026-04-25 00:25 | 40.68791 | -74.17148 | 24 ft | 144 kts | 25° |
| 2026-04-25 00:25 | 40.69802 | -74.16502 | 240 ft | 166 kts | 29° |
| 2026-04-25 00:25 | 40.70807 | -74.15731 | 886 ft | 165 kts | 47° |
| 2026-04-25 00:25 | 40.71636 | -74.14672 | 1486 ft | 168 kts | 47° |
| 2026-04-25 00:26 | 40.72494 | -74.13586 | 1939 ft | 178 kts | 47° |
| 2026-04-25 00:26 | 40.73444 | -74.12377 | 2190 ft | 201 kts | 46° |
| 2026-04-25 00:26 | 40.74496 | -74.11044 | 2446 ft | 225 kts | 44° |
| 2026-04-25 00:26 | 40.75855 | -74.09843 | 2795 ft | 250 kts | 15° |
| 2026-04-25 00:27 | 40.77608 | -74.09923 | 3467 ft | 260 kts | 337° |
| 2026-04-25 00:27 | 40.79005 | -74.11388 | 4402 ft | 260 kts | 306° |
| 2026-04-25 00:27 | 40.80077 | -74.13321 | 5449 ft | 259 kts | 314° |
| 2026-04-25 00:27 | 40.81432 | -74.14850 | 6426 ft | 258 kts | 314° |
| 2026-04-25 00:28 | 40.82312 | -74.16884 | 7317 ft | 260 kts | 282° |
| 2026-04-25 00:28 | 40.82122 | -74.19255 | 8231 ft | 270 kts | 251° |
| 2026-04-25 00:28 | 40.80931 | -74.21251 | 9094 ft | 287 kts | 226° |
| 2026-04-25 00:28 | 40.79150 | -74.22591 | 9896 ft | 306 kts | 206° |
| 2026-04-25 00:29 | 40.77000 | -74.23218 | 10368 ft | 328 kts | 197° |
| 2026-04-25 00:29 | 40.74671 | -74.23747 | 10614 ft | 350 kts | 196° |
| 2026-04-25 00:29 | 40.72228 | -74.24244 | 11160 ft | 358 kts | 195° |
| 2026-04-25 00:29 | 40.69740 | -74.24718 | 11822 ft | 363 kts | 194° |
| 2026-04-25 00:30 | 40.67226 | -74.25187 | 12509 ft | 367 kts | 194° |
| 2026-04-25 00:30 | 40.64682 | -74.25665 | 13195 ft | 371 kts | 194° |
| 2026-04-25 00:30 | 40.62116 | -74.26156 | 13865 ft | 374 kts | 194° |
| 2026-04-25 00:30 | 40.59525 | -74.26661 | 14483 ft | 378 kts | 194° |
| 2026-04-25 00:31 | 40.56899 | -74.27099 | 15099 ft | 384 kts | 188° |
| 2026-04-25 00:31 | 40.54231 | -74.26963 | 15704 ft | 394 kts | 177° |
| 2026-04-25 00:31 | 40.51475 | -74.26553 | 16320 ft | 395 kts | 181° |
| 2026-04-25 00:31 | 40.49082 | -74.26396 | 16863 ft | 395 kts | 184° |
| 2026-04-25 00:32 | 40.46326 | -74.26361 | 17465 ft | 397 kts | 186° |
| 2026-04-25 00:32 | 40.43562 | -74.26384 | 18102 ft | 399 kts | 186° |
| 2026-04-25 00:32 | 40.40776 | -74.26404 | 18660 ft | 402 kts | 185° |
| 2026-04-25 00:32 | 40.38918 | -74.26397 | 19012 ft | 405 kts | 185° |
| 2026-04-25 00:33 | 40.36082 | -74.26349 | 19547 ft | 409 kts | 184° |
| 2026-04-25 00:33 | 40.33225 | -74.26263 | 20066 ft | 413 kts | 184° |
| 2026-04-25 00:33 | 40.30332 | -74.26153 | 20586 ft | 417 kts | 183° |
| 2026-04-25 00:33 | 40.27416 | -74.26038 | 21092 ft | 421 kts | 183° |
| 2026-04-25 00:34 | 40.24471 | -74.25927 | 21574 ft | 425 kts | 184° |
| 2026-04-25 00:34 | 40.21503 | -74.25825 | 22064 ft | 429 kts | 184° |
| 2026-04-25 00:34 | 40.18510 | -74.25725 | 22554 ft | 433 kts | 184° |
| 2026-04-25 00:34 | 40.15480 | -74.25624 | 23056 ft | 437 kts | 184° |
| 2026-04-25 00:35 | 40.12432 | -74.25526 | 23538 ft | 441 kts | 184° |
| 2026-04-25 00:35 | 40.09355 | -74.25431 | 23942 ft | 444 kts | 184° |
| 2026-04-25 00:35 | 40.06256 | -74.25374 | 24339 ft | 446 kts | 187° |
| 2026-04-25 00:35 | 40.03183 | -74.25803 | 24712 ft | 442 kts | 197° |
| 2026-04-25 00:36 | 40.00231 | -74.26841 | 25102 ft | 437 kts | 207° |
| 2026-04-25 00:36 | 39.97473 | -74.28451 | 25486 ft | 432 kts | 216° |
| 2026-04-25 00:36 | 39.94969 | -74.30571 | 25874 ft | 427 kts | 224° |
| 2026-04-25 00:36 | 39.92605 | -74.32859 | 26241 ft | 430 kts | 224° |
| 2026-04-25 00:37 | 39.90148 | -74.35209 | 26612 ft | 433 kts | 224° |
| 2026-04-25 00:37 | 39.87739 | -74.37496 | 26954 ft | 437 kts | 224° |
| 2026-04-25 00:37 | 39.85272 | -74.39827 | 27318 ft | 440 kts | 224° |
| 2026-04-25 00:37 | 39.82786 | -74.42178 | 27655 ft | 441 kts | 225° |
| 2026-04-25 00:38 | 39.80501 | -74.44780 | 28030 ft | 434 kts | 233° |
| 2026-04-25 00:38 | 39.78391 | -74.47603 | 28398 ft | 436 kts | 233° |
| 2026-04-25 00:38 | 39.76264 | -74.50437 | 28746 ft | 439 kts | 233° |
| 2026-04-25 00:38 | 39.74120 | -74.53280 | 29103 ft | 442 kts | 233° |
| 2026-04-25 00:39 | 39.71960 | -74.56140 | 29461 ft | 444 kts | 233° |
| 2026-04-25 00:39 | 39.69786 | -74.59013 | 29825 ft | 447 kts | 233° |
| 2026-04-25 00:39 | 39.67600 | -74.61900 | 30143 ft | 449 kts | 233° |
| 2026-04-25 00:39 | 39.65408 | -74.64795 | 30436 ft | 451 kts | 233° |
| 2026-04-25 00:40 | 39.63198 | -74.67709 | 30734 ft | 454 kts | 233° |
| 2026-04-25 00:40 | 39.60983 | -74.70629 | 31029 ft | 455 kts | 233° |
| 2026-04-25 00:40 | 39.58756 | -74.73563 | 31330 ft | 457 kts | 233° |
| 2026-04-25 00:40 | 39.56546 | -74.76467 | 31741 ft | 456 kts | 233° |
| 2026-04-25 00:41 | 39.54321 | -74.79390 | 32166 ft | 455 kts | 233° |
| 2026-04-25 00:41 | 39.52104 | -74.82302 | 32573 ft | 454 kts | 233° |
| 2026-04-25 00:41 | 39.49888 | -74.85209 | 32991 ft | 453 kts | 234° |
| 2026-04-25 00:41 | 39.47676 | -74.88108 | 33386 ft | 452 kts | 233° |
| 2026-04-25 00:42 | 39.45462 | -74.91000 | 33810 ft | 451 kts | 233° |
| 2026-04-25 00:42 | 39.43258 | -74.93881 | 34177 ft | 450 kts | 233° |
| 2026-04-25 00:42 | 39.41058 | -74.96757 | 34529 ft | 449 kts | 234° |
| 2026-04-25 00:42 | 39.38857 | -74.99635 | 34877 ft | 448 kts | 234° |
| 2026-04-25 00:43 | 39.36667 | -75.02495 | 35210 ft | 447 kts | 234° |
| 2026-04-25 00:43 | 39.34479 | -75.05347 | 35548 ft | 446 kts | 234° |
| 2026-04-25 00:43 | 39.32299 | -75.08183 | 35835 ft | 445 kts | 233° |
| 2026-04-25 00:43 | 39.30115 | -75.11019 | 36146 ft | 444 kts | 233° |
| 2026-04-25 00:44 | 39.27895 | -75.13798 | 36447 ft | 445 kts | 231° |
| 2026-04-25 00:44 | 39.25617 | -75.16510 | 36752 ft | 445 kts | 230° |
| 2026-04-25 00:44 | 39.23308 | -75.19172 | 37048 ft | 445 kts | 229° |
| 2026-04-25 00:44 | 39.20985 | -75.21815 | 37327 ft | 444 kts | 229° |
| 2026-04-25 00:45 | 39.18669 | -75.24453 | 37581 ft | 444 kts | 230° |
| 2026-04-25 00:45 | 39.16367 | -75.27097 | 37825 ft | 443 kts | 230° |
| 2026-04-25 00:45 | 39.11796 | -75.32413 | 37889 ft | 442 kts | 230° |
| 2026-04-25 00:46 | 39.07250 | -75.37732 | 37888 ft | 442 kts | 230° |
| 2026-04-25 00:46 | 39.02222 | -75.42428 | 37889 ft | 458 kts | 213° |
| 2026-04-25 00:47 | 38.99277 | -75.43969 | 37896 ft | 467 kts | 202° |
| 2026-04-25 00:47 | 38.92790 | -75.45349 | 37899 ft | 477 kts | 191° |
| 2026-04-25 00:48 | 38.86189 | -75.46249 | 37895 ft | 477 kts | 191° |
| 2026-04-25 00:48 | 38.79586 | -75.47167 | 37901 ft | 477 kts | 191° |
| 2026-04-25 00:49 | 38.72974 | -75.48087 | 37908 ft | 478 kts | 191° |
| 2026-04-25 00:49 | 38.66359 | -75.48997 | 37921 ft | 478 kts | 191° |
| 2026-04-25 00:50 | 38.59733 | -75.49891 | 37922 ft | 478 kts | 191° |
| 2026-04-25 00:50 | 38.53123 | -75.50786 | 37924 ft | 477 kts | 191° |
| 2026-04-25 00:51 | 38.46523 | -75.51674 | 37918 ft | 477 kts | 191° |
| 2026-04-25 00:51 | 38.39930 | -75.52565 | 37906 ft | 476 kts | 191° |
| 2026-04-25 00:52 | 38.33593 | -75.54483 | 37913 ft | 463 kts | 208° |
| 2026-04-25 00:52 | 38.28088 | -75.58444 | 37914 ft | 451 kts | 221° |
| 2026-04-25 00:53 | 38.22954 | -75.62938 | 37899 ft | 451 kts | 221° |
| 2026-04-25 00:53 | 38.17733 | -75.67471 | 37916 ft | 451 kts | 220° |
| 2026-04-25 00:54 | 38.12584 | -75.71936 | 37924 ft | 451 kts | 221° |
| 2026-04-25 00:54 | 38.07403 | -75.76425 | 37933 ft | 451 kts | 221° |
| 2026-04-25 00:55 | 38.02221 | -75.80922 | 37895 ft | 451 kts | 220° |
| 2026-04-25 00:55 | 37.97024 | -75.85415 | 37901 ft | 452 kts | 220° |
| 2026-04-25 00:56 | 37.91816 | -75.89899 | 37902 ft | 453 kts | 220° |
| 2026-04-25 00:56 | 37.86596 | -75.94392 | 37922 ft | 454 kts | 220° |
| 2026-04-25 00:57 | 37.81368 | -75.98875 | 37925 ft | 454 kts | 220° |
| 2026-04-25 00:57 | 37.76142 | -76.03368 | 37926 ft | 454 kts | 220° |
| 2026-04-25 00:58 | 37.70901 | -76.07856 | 37926 ft | 454 kts | 220° |
| 2026-04-25 00:58 | 37.65665 | -76.12331 | 37934 ft | 455 kts | 220° |
| 2026-04-25 00:59 | 37.60276 | -76.16558 | 37909 ft | 461 kts | 210° |
| 2026-04-25 00:59 | 37.54174 | -76.19308 | 37896 ft | 467 kts | 202° |
| 2026-04-25 01:00 | 37.47985 | -76.21868 | 37889 ft | 469 kts | 202° |
| 2026-04-25 01:00 | 37.41817 | -76.24433 | 37887 ft | 470 kts | 202° |
| 2026-04-25 01:01 | 37.35608 | -76.27006 | 37894 ft | 470 kts | 202° |
| 2026-04-25 01:01 | 37.29391 | -76.29572 | 37915 ft | 470 kts | 202° |
| 2026-04-25 01:02 | 37.23182 | -76.32132 | 37892 ft | 469 kts | 202° |
| 2026-04-25 01:02 | 37.16987 | -76.34686 | 37885 ft | 469 kts | 202° |
| 2026-04-25 01:03 | 37.10785 | -76.37231 | 37879 ft | 468 kts | 202° |
| 2026-04-25 01:03 | 37.04591 | -76.39772 | 37886 ft | 468 kts | 202° |
| 2026-04-25 01:04 | 36.98403 | -76.42304 | 37890 ft | 468 kts | 202° |
| 2026-04-25 01:04 | 36.92214 | -76.44840 | 37891 ft | 468 kts | 201° |
| 2026-04-25 01:05 | 36.86077 | -76.47351 | 37929 ft | 467 kts | 201° |
| 2026-04-25 01:05 | 36.79906 | -76.49869 | 37934 ft | 466 kts | 201° |
| 2026-04-25 01:06 | 36.73744 | -76.52382 | 37911 ft | 466 kts | 201° |
| 2026-04-25 01:06 | 36.67573 | -76.54886 | 37903 ft | 467 kts | 201° |
| 2026-04-25 01:07 | 36.61391 | -76.57388 | 37920 ft | 467 kts | 201° |
| 2026-04-25 01:07 | 36.55220 | -76.59886 | 37911 ft | 466 kts | 201° |
| 2026-04-25 01:08 | 36.49040 | -76.62381 | 37912 ft | 466 kts | 201° |
| 2026-04-25 01:08 | 36.42875 | -76.64869 | 37905 ft | 466 kts | 200° |
| 2026-04-25 01:09 | 36.36710 | -76.67353 | 37908 ft | 465 kts | 200° |
| 2026-04-25 01:09 | 36.30552 | -76.69823 | 37913 ft | 465 kts | 200° |
| 2026-04-25 01:10 | 36.24398 | -76.72297 | 37899 ft | 465 kts | 200° |
| 2026-04-25 01:10 | 36.18254 | -76.74770 | 37924 ft | 464 kts | 200° |
| 2026-04-25 01:11 | 36.12119 | -76.77222 | 37928 ft | 462 kts | 200° |
| 2026-04-25 01:11 | 36.06000 | -76.79660 | 37917 ft | 462 kts | 200° |
| 2026-04-25 01:12 | 35.99889 | -76.82099 | 37906 ft | 461 kts | 200° |
| 2026-04-25 01:12 | 35.93796 | -76.84531 | 37916 ft | 460 kts | 200° |
| 2026-04-25 01:13 | 35.87928 | -76.87553 | 37900 ft | 456 kts | 208° |
| 2026-04-25 01:13 | 35.82255 | -76.91060 | 37886 ft | 456 kts | 208° |
| 2026-04-25 01:14 | 35.76606 | -76.94541 | 37895 ft | 457 kts | 208° |
| 2026-04-25 01:14 | 35.70921 | -76.98032 | 37911 ft | 456 kts | 208° |
| 2026-04-25 01:15 | 35.65250 | -77.01521 | 37918 ft | 456 kts | 208° |
| 2026-04-25 01:15 | 35.59579 | -77.04993 | 37918 ft | 455 kts | 208° |
| 2026-04-25 01:16 | 35.53910 | -77.08456 | 37913 ft | 455 kts | 208° |
| 2026-04-25 01:16 | 35.48250 | -77.11911 | 37917 ft | 453 kts | 208° |
| 2026-04-25 01:17 | 35.43552 | -77.14775 | 37914 ft | 452 kts | 208° |
| 2026-04-25 01:17 | 35.37924 | -77.18208 | 37908 ft | 451 kts | 208° |
| 2026-04-25 01:18 | 35.32300 | -77.21627 | 37905 ft | 451 kts | 208° |
| 2026-04-25 01:18 | 35.26679 | -77.25036 | 37900 ft | 451 kts | 208° |
| 2026-04-25 01:19 | 35.21049 | -77.28450 | 37906 ft | 451 kts | 208° |
| 2026-04-25 01:19 | 35.15445 | -77.31841 | 37913 ft | 452 kts | 208° |
| 2026-04-25 01:20 | 35.09803 | -77.35248 | 37913 ft | 452 kts | 208° |
| 2026-04-25 01:20 | 35.04167 | -77.38653 | 37921 ft | 451 kts | 208° |
| 2026-04-25 01:21 | 34.98535 | -77.42051 | 37938 ft | 451 kts | 208° |
| 2026-04-25 01:21 | 34.92949 | -77.45409 | 37942 ft | 450 kts | 208° |
| 2026-04-25 01:22 | 34.87331 | -77.48782 | 37942 ft | 450 kts | 208° |
| 2026-04-25 01:22 | 34.81718 | -77.52139 | 37954 ft | 449 kts | 208° |
| 2026-04-25 01:23 | 34.76114 | -77.55486 | 37954 ft | 448 kts | 208° |
| 2026-04-25 01:23 | 34.70536 | -77.58833 | 37942 ft | 447 kts | 208° |
| 2026-04-25 01:24 | 34.64969 | -77.62169 | 37922 ft | 446 kts | 208° |
| 2026-04-25 01:24 | 34.59389 | -77.65497 | 37931 ft | 446 kts | 208° |
| 2026-04-25 01:25 | 34.53566 | -77.68103 | 37935 ft | 449 kts | 194° |
| 2026-04-25 01:25 | 34.47441 | -77.69668 | 37942 ft | 449 kts | 194° |
| 2026-04-25 01:26 | 34.41330 | -77.71212 | 37936 ft | 449 kts | 193° |
| 2026-04-25 01:26 | 34.35227 | -77.72760 | 37927 ft | 448 kts | 194° |
| 2026-04-25 01:27 | 34.29124 | -77.74311 | 37939 ft | 447 kts | 194° |
| 2026-04-25 01:27 | 34.23077 | -77.75851 | 37943 ft | 446 kts | 194° |
| 2026-04-25 01:28 | 34.13959 | -77.78159 | 37956 ft | 446 kts | 194° |
| 2026-04-25 01:28 | 34.07887 | -77.79690 | 37960 ft | 445 kts | 195° |
| 2026-04-25 01:29 | 34.01838 | -77.81213 | 37964 ft | 443 kts | 195° |
| 2026-04-25 01:29 | 33.95807 | -77.82737 | 37973 ft | 442 kts | 195° |
| 2026-04-25 01:30 | 33.89782 | -77.84255 | 37972 ft | 442 kts | 195° |
| 2026-04-25 01:30 | 33.83765 | -77.85766 | 37976 ft | 441 kts | 195° |
| 2026-04-25 01:31 | 33.77776 | -77.87308 | 37980 ft | 439 kts | 197° |
| 2026-04-25 01:31 | 33.71913 | -77.89226 | 37982 ft | 436 kts | 200° |
| 2026-04-25 01:32 | 33.66103 | -77.91324 | 37977 ft | 435 kts | 200° |
| 2026-04-25 01:32 | 33.60292 | -77.93373 | 37977 ft | 435 kts | 199° |
| 2026-04-25 01:33 | 33.54469 | -77.95337 | 37985 ft | 434 kts | 199° |
| 2026-04-25 01:33 | 33.48662 | -77.97281 | 37979 ft | 433 kts | 199° |
| 2026-04-25 01:34 | 33.42897 | -77.99220 | 37983 ft | 433 kts | 199° |
| 2026-04-25 01:34 | 33.37097 | -78.01171 | 37983 ft | 433 kts | 199° |
| 2026-04-25 01:35 | 33.31299 | -78.03121 | 37993 ft | 432 kts | 199° |
| 2026-04-25 01:35 | 33.25525 | -78.05084 | 37994 ft | 431 kts | 199° |
| 2026-04-25 01:36 | 33.19747 | -78.07027 | 37999 ft | 431 kts | 199° |
| 2026-04-25 01:36 | 33.13967 | -78.08954 | 37998 ft | 431 kts | 199° |
| 2026-04-25 01:37 | 33.08192 | -78.10882 | 37993 ft | 430 kts | 199° |
| 2026-04-25 01:37 | 33.02424 | -78.12813 | 38000 ft | 430 kts | 199° |
| 2026-04-25 01:38 | 32.96669 | -78.14735 | 38004 ft | 429 kts | 199° |
| 2026-04-25 01:38 | 32.90944 | -78.16647 | 38001 ft | 429 kts | 199° |
| 2026-04-25 01:39 | 32.85189 | -78.18559 | 38001 ft | 429 kts | 199° |
| 2026-04-25 01:39 | 32.79445 | -78.20476 | 38004 ft | 429 kts | 199° |
| 2026-04-25 01:40 | 32.73776 | -78.22359 | 38006 ft | 429 kts | 199° |
| 2026-04-25 01:40 | 32.68035 | -78.24253 | 38007 ft | 429 kts | 199° |
| 2026-04-25 01:41 | 32.62282 | -78.26163 | 38004 ft | 428 kts | 199° |
| 2026-04-25 01:41 | 32.56574 | -78.28051 | 38000 ft | 428 kts | 199° |
| 2026-04-25 01:42 | 32.50838 | -78.29963 | 38005 ft | 428 kts | 199° |
| 2026-04-25 01:42 | 32.45088 | -78.31857 | 38002 ft | 428 kts | 199° |
| 2026-04-25 01:43 | 32.40242 | -78.33447 | 38006 ft | 428 kts | 199° |
| 2026-04-25 01:43 | 32.34504 | -78.35342 | 38002 ft | 428 kts | 199° |
| 2026-04-25 01:44 | 32.28767 | -78.37231 | 38001 ft | 428 kts | 198° |
| 2026-04-25 01:44 | 32.23020 | -78.39118 | 38008 ft | 428 kts | 198° |
| 2026-04-25 01:45 | 32.17317 | -78.40983 | 38008 ft | 428 kts | 198° |
| 2026-04-25 01:45 | 32.11580 | -78.42857 | 38011 ft | 428 kts | 199° |
| 2026-04-25 01:46 | 32.05852 | -78.44744 | 38005 ft | 428 kts | 198° |
| 2026-04-25 01:46 | 32.00114 | -78.46624 | 38005 ft | 428 kts | 198° |
| 2026-04-25 01:47 | 31.94366 | -78.48493 | 38014 ft | 428 kts | 198° |
| 2026-04-25 01:47 | 31.88629 | -78.50359 | 38009 ft | 428 kts | 198° |
| 2026-04-25 01:48 | 31.82888 | -78.52227 | 38021 ft | 428 kts | 198° |
| 2026-04-25 01:48 | 31.77144 | -78.54098 | 38014 ft | 428 kts | 198° |
| 2026-04-25 01:49 | 31.71402 | -78.55962 | 38018 ft | 428 kts | 198° |
| 2026-04-25 01:49 | 31.65700 | -78.57805 | 38018 ft | 428 kts | 198° |
| 2026-04-25 01:50 | 31.59954 | -78.59658 | 38024 ft | 428 kts | 198° |
| 2026-04-25 01:50 | 31.54218 | -78.61521 | 38014 ft | 428 kts | 198° |
| 2026-04-25 01:51 | 31.48492 | -78.63448 | 38019 ft | 428 kts | 199° |
| 2026-04-25 01:51 | 31.42783 | -78.65427 | 38022 ft | 428 kts | 199° |
| 2026-04-25 01:52 | 31.37073 | -78.67393 | 38022 ft | 428 kts | 199° |
| 2026-04-25 01:52 | 31.31361 | -78.69353 | 38025 ft | 428 kts | 199° |
| 2026-04-25 01:53 | 31.25646 | -78.71309 | 38022 ft | 428 kts | 198° |
| 2026-04-25 01:53 | 31.19927 | -78.73253 | 38024 ft | 427 kts | 198° |
| 2026-04-25 01:54 | 31.14214 | -78.75194 | 38028 ft | 427 kts | 198° |
| 2026-04-25 01:54 | 31.08504 | -78.77129 | 38030 ft | 427 kts | 198° |
| 2026-04-25 01:55 | 31.02798 | -78.79072 | 38024 ft | 427 kts | 198° |
| 2026-04-25 01:55 | 30.97094 | -78.81016 | 38027 ft | 427 kts | 198° |
| 2026-04-25 01:56 | 30.91381 | -78.82950 | 38032 ft | 428 kts | 198° |
| 2026-04-25 01:56 | 30.85665 | -78.84879 | 38030 ft | 428 kts | 198° |
| 2026-04-25 01:57 | 30.77125 | -78.87765 | 38033 ft | 428 kts | 198° |
| 2026-04-25 01:58 | 30.71406 | -78.89691 | 38025 ft | 428 kts | 198° |
| 2026-04-25 01:58 | 30.65685 | -78.91613 | 38026 ft | 428 kts | 198° |
| 2026-04-25 01:59 | 30.59970 | -78.93531 | 38029 ft | 428 kts | 198° |
| 2026-04-25 01:59 | 30.54245 | -78.95460 | 38031 ft | 428 kts | 198° |
| 2026-04-25 02:00 | 30.48530 | -78.97381 | 38027 ft | 428 kts | 198° |
| 2026-04-25 02:00 | 30.43771 | -78.98976 | 38024 ft | 428 kts | 198° |
| 2026-04-25 02:01 | 30.37058 | -79.00990 | 38027 ft | 429 kts | 194° |
| 2026-04-25 02:01 | 30.32174 | -79.02213 | 38028 ft | 429 kts | 194° |
| 2026-04-25 02:02 | 30.26329 | -79.03663 | 38032 ft | 429 kts | 194° |
| 2026-04-25 02:02 | 30.20492 | -79.05161 | 38033 ft | 429 kts | 195° |
| 2026-04-25 02:03 | 30.14700 | -79.06686 | 38034 ft | 430 kts | 195° |
| 2026-04-25 02:03 | 30.08866 | -79.08222 | 38033 ft | 430 kts | 195° |
| 2026-04-25 02:04 | 30.03028 | -79.09745 | 38037 ft | 431 kts | 194° |
| 2026-04-25 02:04 | 29.97177 | -79.11268 | 38036 ft | 431 kts | 195° |
| 2026-04-25 02:05 | 29.91330 | -79.12780 | 38025 ft | 431 kts | 195° |
| 2026-04-25 02:05 | 29.85463 | -79.14299 | 38023 ft | 431 kts | 195° |
| 2026-04-25 02:06 | 29.79607 | -79.15810 | 38015 ft | 431 kts | 195° |
| 2026-04-25 02:06 | 29.73742 | -79.17315 | 38015 ft | 431 kts | 195° |
| 2026-04-25 02:07 | 29.67878 | -79.18813 | 38019 ft | 431 kts | 194° |
| 2026-04-25 02:07 | 29.62006 | -79.20300 | 38016 ft | 432 kts | 195° |
| 2026-04-25 02:08 | 29.56128 | -79.21798 | 38019 ft | 433 kts | 195° |
| 2026-04-25 02:08 | 29.50242 | -79.23300 | 38022 ft | 433 kts | 195° |
| 2026-04-25 02:09 | 29.44359 | -79.24796 | 38027 ft | 433 kts | 195° |
| 2026-04-25 02:09 | 29.38501 | -79.26276 | 38020 ft | 434 kts | 195° |
| 2026-04-25 02:10 | 29.32602 | -79.27769 | 38019 ft | 434 kts | 195° |
| 2026-04-25 02:10 | 29.26698 | -79.29262 | 38020 ft | 435 kts | 195° |
| 2026-04-25 02:11 | 29.20781 | -79.30755 | 38022 ft | 435 kts | 195° |
| 2026-04-25 02:11 | 29.14867 | -79.32250 | 38028 ft | 435 kts | 195° |
| 2026-04-25 02:12 | 29.08954 | -79.33738 | 38013 ft | 436 kts | 195° |
| 2026-04-25 02:12 | 29.05956 | -79.34491 | 37772 ft | 445 kts | 196° |
| 2026-04-25 02:12 | 29.02926 | -79.35257 | 37501 ft | 448 kts | 195° |
| 2026-04-25 02:12 | 28.99875 | -79.36026 | 37233 ft | 447 kts | 195° |
| 2026-04-25 02:13 | 28.96840 | -79.36786 | 36973 ft | 446 kts | 195° |
| 2026-04-25 02:13 | 28.93812 | -79.37545 | 36714 ft | 444 kts | 195° |
| 2026-04-25 02:13 | 28.90806 | -79.38300 | 36456 ft | 442 kts | 195° |
| 2026-04-25 02:13 | 28.87811 | -79.39053 | 36197 ft | 440 kts | 195° |
| 2026-04-25 02:14 | 28.84829 | -79.39800 | 35967 ft | 438 kts | 195° |
| 2026-04-25 02:14 | 28.81865 | -79.40543 | 35694 ft | 436 kts | 195° |
| 2026-04-25 02:14 | 28.78898 | -79.41290 | 35448 ft | 435 kts | 195° |
| 2026-04-25 02:14 | 28.75949 | -79.42032 | 35205 ft | 433 kts | 195° |
| 2026-04-25 02:15 | 28.73047 | -79.42757 | 34968 ft | 432 kts | 195° |
| 2026-04-25 02:15 | 28.70107 | -79.43486 | 34728 ft | 432 kts | 195° |
| 2026-04-25 02:15 | 28.67176 | -79.44212 | 34489 ft | 431 kts | 196° |
| 2026-04-25 02:15 | 28.64250 | -79.44942 | 34256 ft | 429 kts | 196° |
| 2026-04-25 02:16 | 28.61351 | -79.45669 | 33955 ft | 425 kts | 196° |
| 2026-04-25 02:16 | 28.58470 | -79.46390 | 33444 ft | 423 kts | 196° |
| 2026-04-25 02:16 | 28.55609 | -79.47106 | 32983 ft | 419 kts | 195° |
| 2026-04-25 02:16 | 28.52762 | -79.47815 | 32515 ft | 417 kts | 196° |
| 2026-04-25 02:17 | 28.49934 | -79.48519 | 32061 ft | 414 kts | 196° |
| 2026-04-25 02:17 | 28.47115 | -79.49219 | 31610 ft | 412 kts | 196° |
| 2026-04-25 02:17 | 28.44322 | -79.49913 | 31167 ft | 410 kts | 196° |
| 2026-04-25 02:17 | 28.41538 | -79.50602 | 30730 ft | 409 kts | 196° |
| 2026-04-25 02:18 | 28.38766 | -79.51289 | 30303 ft | 407 kts | 196° |
| 2026-04-25 02:18 | 28.36004 | -79.51974 | 29846 ft | 405 kts | 196° |
| 2026-04-25 02:18 | 28.33261 | -79.52654 | 29433 ft | 402 kts | 196° |
| 2026-04-25 02:18 | 28.30541 | -79.53330 | 29038 ft | 399 kts | 196° |
| 2026-04-25 02:19 | 28.27845 | -79.54021 | 28653 ft | 395 kts | 197° |
| 2026-04-25 02:19 | 28.25184 | -79.54741 | 28261 ft | 392 kts | 197° |
| 2026-04-25 02:19 | 28.22536 | -79.55477 | 27893 ft | 390 kts | 198° |
| 2026-04-25 02:19 | 28.19942 | -79.56202 | 27504 ft | 388 kts | 198° |
| 2026-04-25 02:20 | 28.17324 | -79.56929 | 27114 ft | 386 kts | 198° |
| 2026-04-25 02:20 | 28.14717 | -79.57645 | 26721 ft | 384 kts | 197° |
| 2026-04-25 02:20 | 28.12119 | -79.58351 | 26318 ft | 383 kts | 197° |
| 2026-04-25 02:20 | 28.09531 | -79.59054 | 25915 ft | 381 kts | 197° |
| 2026-04-25 02:21 | 28.06951 | -79.59753 | 25496 ft | 380 kts | 197° |
| 2026-04-25 02:21 | 28.04375 | -79.60448 | 25078 ft | 379 kts | 197° |
| 2026-04-25 02:21 | 28.01810 | -79.61140 | 24650 ft | 379 kts | 197° |
| 2026-04-25 02:21 | 27.99248 | -79.61833 | 24214 ft | 378 kts | 197° |
| 2026-04-25 02:22 | 27.96693 | -79.62527 | 23763 ft | 378 kts | 197° |
| 2026-04-25 02:22 | 27.94125 | -79.63226 | 23229 ft | 379 kts | 197° |
| 2026-04-25 02:22 | 27.91567 | -79.63922 | 22742 ft | 377 kts | 197° |
| 2026-04-25 02:22 | 27.89019 | -79.64612 | 22264 ft | 375 kts | 197° |
| 2026-04-25 02:23 | 27.86483 | -79.65297 | 21788 ft | 373 kts | 197° |
| 2026-04-25 02:23 | 27.83993 | -79.65970 | 21315 ft | 372 kts | 197° |
| 2026-04-25 02:23 | 27.81487 | -79.66647 | 20851 ft | 370 kts | 197° |
| 2026-04-25 02:23 | 27.78991 | -79.67324 | 20381 ft | 368 kts | 197° |
| 2026-04-25 02:24 | 27.76509 | -79.67996 | 19916 ft | 366 kts | 197° |
| 2026-04-25 02:24 | 27.74034 | -79.68665 | 19452 ft | 365 kts | 197° |
| 2026-04-25 02:24 | 27.71577 | -79.69329 | 19047 ft | 362 kts | 197° |
| 2026-04-25 02:24 | 27.69130 | -79.69990 | 18594 ft | 361 kts | 197° |
| 2026-04-25 02:25 | 27.66696 | -79.70647 | 18081 ft | 359 kts | 197° |
| 2026-04-25 02:25 | 27.64284 | -79.71295 | 17701 ft | 354 kts | 197° |
| 2026-04-25 02:25 | 27.61884 | -79.71940 | 17207 ft | 353 kts | 197° |
| 2026-04-25 02:25 | 27.59509 | -79.72578 | 16711 ft | 351 kts | 196° |
| 2026-04-25 02:26 | 27.57144 | -79.73214 | 16328 ft | 347 kts | 196° |
| 2026-04-25 02:26 | 27.54787 | -79.73847 | 15877 ft | 345 kts | 196° |
| 2026-04-25 02:26 | 27.52455 | -79.74475 | 15401 ft | 344 kts | 196° |
| 2026-04-25 02:26 | 27.50142 | -79.75101 | 15006 ft | 341 kts | 196° |
| 2026-04-25 02:27 | 27.47842 | -79.75723 | 14611 ft | 338 kts | 196° |
| 2026-04-25 02:27 | 27.45565 | -79.76334 | 14220 ft | 335 kts | 196° |
| 2026-04-25 02:27 | 27.43299 | -79.76941 | 13793 ft | 334 kts | 196° |
| 2026-04-25 02:27 | 27.41039 | -79.77545 | 13336 ft | 332 kts | 196° |
| 2026-04-25 02:28 | 27.38821 | -79.78140 | 12899 ft | 330 kts | 196° |
| 2026-04-25 02:28 | 27.36584 | -79.78739 | 12416 ft | 330 kts | 196° |
| 2026-04-25 02:28 | 27.34357 | -79.79333 | 11957 ft | 329 kts | 195° |
| 2026-04-25 02:28 | 27.32138 | -79.79926 | 11568 ft | 326 kts | 195° |
| 2026-04-25 02:29 | 27.29930 | -79.80518 | 11154 ft | 325 kts | 195° |
| 2026-04-25 02:29 | 27.27728 | -79.81111 | 10731 ft | 324 kts | 195° |
| 2026-04-25 02:29 | 27.25540 | -79.81701 | 10309 ft | 324 kts | 195° |
| 2026-04-25 02:29 | 27.23355 | -79.82286 | 9884 ft | 323 kts | 195° |
| 2026-04-25 02:30 | 27.21209 | -79.82903 | 9708 ft | 312 kts | 201° |
| 2026-04-25 02:30 | 27.19281 | -79.83906 | 9495 ft | 302 kts | 210° |
| 2026-04-25 02:30 | 27.17435 | -79.85007 | 9168 ft | 299 kts | 211° |
| 2026-04-25 02:30 | 27.15605 | -79.86103 | 8809 ft | 297 kts | 211° |
| 2026-04-25 02:31 | 27.13786 | -79.87195 | 8450 ft | 296 kts | 211° |
| 2026-04-25 02:31 | 27.11999 | -79.88267 | 8112 ft | 294 kts | 210° |
| 2026-04-25 02:31 | 27.10173 | -79.89360 | 7768 ft | 293 kts | 210° |
| 2026-04-25 02:31 | 27.08385 | -79.90424 | 7352 ft | 288 kts | 210° |
| 2026-04-25 02:32 | 27.06616 | -79.91472 | 6731 ft | 287 kts | 210° |
| 2026-04-25 02:32 | 27.04878 | -79.92502 | 6112 ft | 285 kts | 210° |
| 2026-04-25 02:32 | 27.03143 | -79.93531 | 5654 ft | 279 kts | 209° |
| 2026-04-25 02:32 | 27.01430 | -79.94547 | 5289 ft | 277 kts | 209° |
| 2026-04-25 02:33 | 26.99730 | -79.95555 | 4938 ft | 275 kts | 209° |
| 2026-04-25 02:33 | 26.98044 | -79.96555 | 4581 ft | 273 kts | 208° |
| 2026-04-25 02:33 | 26.96358 | -79.97556 | 4230 ft | 275 kts | 208° |
| 2026-04-25 02:33 | 26.94729 | -79.98654 | 4001 ft | 270 kts | 217° |
| 2026-04-25 02:34 | 26.93255 | -79.99932 | 3992 ft | 269 kts | 217° |
| 2026-04-25 02:34 | 26.91771 | -80.01212 | 3995 ft | 269 kts | 217° |
| 2026-04-25 02:34 | 26.90284 | -80.02489 | 3993 ft | 269 kts | 217° |
| 2026-04-25 02:34 | 26.88792 | -80.03767 | 3993 ft | 269 kts | 217° |
| 2026-04-25 02:35 | 26.87306 | -80.05043 | 3990 ft | 269 kts | 217° |
| 2026-04-25 02:35 | 26.85840 | -80.06304 | 3991 ft | 269 kts | 217° |
| 2026-04-25 02:35 | 26.84364 | -80.07574 | 3990 ft | 262 kts | 217° |
| 2026-04-25 02:35 | 26.82966 | -80.08785 | 3987 ft | 247 kts | 218° |
| 2026-04-25 02:36 | 26.81682 | -80.09969 | 3987 ft | 231 kts | 226° |
| 2026-04-25 02:36 | 26.80826 | -80.11422 | 3991 ft | 221 kts | 248° |
| 2026-04-25 02:36 | 26.80479 | -80.13086 | 3994 ft | 220 kts | 266° |
| 2026-04-25 02:36 | 26.80370 | -80.14795 | 3995 ft | 220 kts | 266° |
| 2026-04-25 02:37 | 26.80253 | -80.16497 | 3995 ft | 219 kts | 265° |
| 2026-04-25 02:37 | 26.80129 | -80.18202 | 3994 ft | 220 kts | 265° |
| 2026-04-25 02:37 | 26.79991 | -80.19908 | 3992 ft | 220 kts | 264° |
| 2026-04-25 02:37 | 26.79947 | -80.21616 | 3992 ft | 220 kts | 271° |
| 2026-04-25 02:38 | 26.79999 | -80.23327 | 3990 ft | 220 kts | 272° |
| 2026-04-25 02:38 | 26.80066 | -80.25045 | 3991 ft | 221 kts | 272° |
| 2026-04-25 02:38 | 26.80134 | -80.26737 | 3991 ft | 220 kts | 272° |
| 2026-04-25 02:38 | 26.80203 | -80.28448 | 3991 ft | 220 kts | 272° |
| 2026-04-25 02:39 | 26.80273 | -80.30161 | 3991 ft | 221 kts | 272° |
| 2026-04-25 02:39 | 26.80345 | -80.31875 | 3983 ft | 220 kts | 272° |
| 2026-04-25 02:39 | 26.80412 | -80.33574 | 3982 ft | 218 kts | 270° |
| 2026-04-25 02:39 | 26.80127 | -80.35176 | 3978 ft | 205 kts | 243° |
| 2026-04-25 02:40 | 26.79260 | -80.36408 | 3987 ft | 202 kts | 216° |
| 2026-04-25 02:40 | 26.78001 | -80.37050 | 3983 ft | 200 kts | 188° |
| 2026-04-25 02:40 | 26.76631 | -80.36988 | 3984 ft | 198 kts | 164° |
| 2026-04-25 02:40 | 26.75300 | -80.36572 | 3983 ft | 198 kts | 163° |
| 2026-04-25 02:41 | 26.73967 | -80.36164 | 3987 ft | 198 kts | 163° |
| 2026-04-25 02:41 | 26.72637 | -80.35760 | 3986 ft | 199 kts | 163° |
| 2026-04-25 02:41 | 26.71321 | -80.35287 | 3996 ft | 198 kts | 152° |
| 2026-04-25 02:41 | 26.70210 | -80.34384 | 3974 ft | 197 kts | 131° |
| 2026-04-25 02:42 | 26.69476 | -80.33130 | 3836 ft | 196 kts | 111° |
| 2026-04-25 02:42 | 26.69203 | -80.31652 | 3630 ft | 194 kts | 93° |
| 2026-04-25 02:42 | 26.69142 | -80.30148 | 3396 ft | 193 kts | 93° |
| 2026-04-25 02:42 | 26.69080 | -80.28653 | 3151 ft | 192 kts | 93° |
| 2026-04-25 02:43 | 26.69019 | -80.27191 | 2920 ft | 183 kts | 94° |
| 2026-04-25 02:43 | 26.68961 | -80.25811 | 2675 ft | 172 kts | 94° |
| 2026-04-25 02:43 | 26.68907 | -80.24514 | 2447 ft | 162 kts | 94° |
| 2026-04-25 02:43 | 26.68856 | -80.23307 | 2233 ft | 149 kts | 95° |
| 2026-04-25 02:44 | 26.68809 | -80.22188 | 2074 ft | 139 kts | 95° |
| 2026-04-25 02:44 | 26.68763 | -80.21125 | 1882 ft | 135 kts | 95° |
| 2026-04-25 02:44 | 26.68718 | -80.20084 | 1710 ft | 133 kts | 95° |
| 2026-04-25 02:44 | 26.68674 | -80.19055 | 1532 ft | 132 kts | 95° |
| 2026-04-25 02:45 | 26.68630 | -80.18031 | 1358 ft | 132 kts | 95° |
| 2026-04-25 02:45 | 26.68586 | -80.17010 | 1186 ft | 131 kts | 95° |
| 2026-04-25 02:45 | 26.68542 | -80.15988 | 1009 ft | 132 kts | 96° |
| 2026-04-25 02:45 | 26.68514 | -80.15310 | 911 ft | 132 kts | 94° |
| 2026-04-25 02:46 | 26.68471 | -80.14282 | 746 ft | 131 kts | 95° |
| 2026-04-25 02:46 | 26.68415 | -80.12933 | 532 ft | 131 kts | 94° |
| 2026-04-25 02:46 | 26.68386 | -80.12254 | 373 ft | 128 kts | 94° |
| 2026-04-25 02:46 | 26.68347 | -80.11259 | 189 ft | 129 kts | 94° |
| 2026-04-25 02:47 | 26.68299 | -80.10255 | 32 ft | 128 kts | 95° |
| 2026-04-25 02:47 | 26.68258 | -80.09397 | 22 ft | 86 kts | 92° |
| 2026-04-25 02:47 | 26.68240 | -80.08925 | 22 ft | 28 kts | 90° |
| 2026-04-25 02:47 | 26.68303 | -80.08843 | 22 ft | 7 kts | 0° |
| 2026-04-25 02:48 | 26.68319 | -80.08845 | 22 ft | 3 kts | 352° |
| 2026-04-25 02:48 | 26.68346 | -80.08880 | 22 ft | 10 kts | 291° |
| 2026-04-25 02:48 | 26.68350 | -80.08979 | 23 ft | 14 kts | 273° |
| 2026-04-25 02:48 | 26.68353 | -80.09031 | 22 ft | 1 kts | 273° |
| 2026-04-25 02:49 | 26.68354 | -80.09054 | 22 ft | 5 kts | 273° |
| 2026-04-25 02:49 | 26.68359 | -80.09097 | 22 ft | 6 kts | 290° |
| 2026-04-25 02:49 | 26.68402 | -80.09100 | 22 ft | 9 kts | 14° |
| 2026-04-25 02:49 | 26.68451 | -80.09068 | 22 ft | 7 kts | 74° |
| 2026-04-25 02:50 | 26.68455 | -80.09006 | 24 ft | 10 kts | 55° |
| 2026-04-25 02:50 | 26.68485 | -80.08986 | 22 ft | 1 kts | 41° |
| 2026-04-25 02:50 | 26.68476 | -80.08959 | 22 ft | 7 kts | 107° |
| 2026-04-25 02:50 | 26.68493 | -80.08937 | 23 ft | 3 kts | 13° |
| 2026-04-25 02:51 | 26.68515 | -80.08934 | 22 ft | 3 kts | 0° |
| 2026-04-25 02:51 | 26.68523 | -80.08934 | 22 ft | 0 kts | 1° |